Time;durP1;ratioP1;P1;durP2;ratioP2;P2;SDS_P1;SDS_P2;PMS_P1;PMS_P2;Temp;Humidity;BMP_temperature;BMP_pressure;BME280_temperature;BME280_humidity;BME280_pressure;Samples;Min_cycle;Max_cycle;Signal;HPM_P1;HPM_P2
2023/07/24 00:00:39;;;;;;;57.17;2.90;;;;;;;;;;5091183;28;20494;-69
2023/07/24 00:03:06;;;;;;;57.17;2.50;;;;;;;;;;5090278;28;20474;-70
2023/07/24 00:05:33;;;;;;;57.30;2.80;;;;;;;;;;5071778;28;20451;-69
2023/07/24 00:08:00;;;;;;;58.47;3.17;;;;;;;;;;5071289;28;20447;-71
2023/07/24 00:10:27;;;;;;;57.20;3.03;;;;;;;;;;5071355;28;20446;-70
2023/07/24 00:12:54;;;;;;;57.63;3.00;;;;;;;;;;5071562;28;20471;-70
2023/07/24 00:15:23;;;;;;;57.33;3.17;;;;;;;;;;5071448;28;20530;-71
2023/07/24 00:17:50;;;;;;;58.17;3.57;;;;;;;;;;5070999;28;20973;-70
2023/07/24 00:20:17;;;;;;;57.80;3.57;;;;;;;;;;5070844;28;20494;-71
2023/07/24 00:22:44;;;;;;;56.80;2.60;;;;;;;;;;5070893;28;20475;-71
2023/07/24 00:25:11;;;;;;;56.53;2.40;;;;;;;;;;5071128;28;20470;-70
2023/07/24 00:27:38;;;;;;;56.87;2.40;;;;;;;;;;5072290;28;20963;-70
2023/07/24 00:30:06;;;;;;;58.20;3.47;;;;;;;;;;5075022;28;20450;-72
2023/07/24 00:32:34;;;;;;;57.30;3.00;;;;;;;;;;5075346;28;20477;-71
2023/07/24 00:35:01;;;;;;;57.07;2.80;;;;;;;;;;5075012;28;20455;-71
2023/07/24 00:37:29;;;;;;;57.37;2.77;;;;;;;;;;5074512;28;20446;-71
2023/07/24 00:39:56;;;;;;;57.63;3.70;;;;;;;;;;5074286;28;20479;-71
2023/07/24 00:42:23;;;;;;;58.87;3.63;;;;;;;;;;5073855;28;20482;-70
2023/07/24 00:44:50;;;;;;;57.07;2.80;;;;;;;;;;5074476;28;20452;-70
2023/07/24 00:47:17;;;;;;;57.10;2.90;;;;;;;;;;5074514;28;20447;-70
2023/07/24 00:49:46;;;;;;;56.97;2.80;;;;;;;;;;5074300;28;20453;-70
2023/07/24 00:52:14;;;;;;;56.97;2.50;;;;;;;;;;5073928;28;20842;-71
2023/07/24 00:54:41;;;;;;;57.30;3.17;;;;;;;;;;5074198;28;20459;-71
2023/07/24 00:57:08;;;;;;;56.60;2.33;;;;;;;;;;5073896;28;20451;-70
2023/07/24 00:59:35;;;;;;;56.93;2.33;;;;;;;;;;5073951;28;20542;-70
2023/07/24 01:02:02;;;;;;;56.57;2.60;;;;;;;;;;5073809;28;20471;-70
2023/07/24 01:04:29;;;;;;;57.10;3.00;;;;;;;;;;5074301;28;20825;-70
2023/07/24 01:06:58;;;;;;;57.50;2.77;;;;;;;;;;5074177;28;20446;-71
2023/07/24 01:09:25;;;;;;;57.57;3.23;;;;;;;;;;5074032;28;20453;-70
2023/07/24 01:11:56;;;;;;;56.67;2.60;;;;;;;;;;5073853;28;20534;-70
2023/07/24 01:14:26;;;;;;;57.10;2.80;;;;;;;;;;5072927;28;20465;-69
2023/07/24 01:16:53;;;;;;;56.80;2.67;;;;;;;;;;5082986;28;20446;-70
2023/07/24 01:19:22;;;;;;;63.43;3.43;;;;;;;;;;5087764;28;20474;-70
2023/07/24 01:21:57;;;;;;;57.10;3.03;;;;;;;;;;5091813;28;20481;-69
2023/07/24 01:24:31;;;;;;;56.97;2.93;;;;;;;;;;5088223;28;20450;-70
2023/07/24 01:27:00;;;;;;;60.17;4.10;;;;;;;;;;5094318;28;20446;-70
2023/07/24 01:29:27;;;;;;;56.90;2.87;;;;;;;;;;5094161;28;20465;-71
2023/07/24 01:31:54;;;;;;;57.20;2.80;;;;;;;;;;5091183;28;20561;-70
2023/07/24 01:34:21;;;;;;;56.87;2.50;;;;;;;;;;5087384;28;20445;-70
2023/07/24 01:36:49;;;;;;;57.20;3.13;;;;;;;;;;5093698;28;20447;-70
2023/07/24 01:39:17;;;;;;;56.70;2.47;;;;;;;;;;5091632;28;20956;-70
2023/07/24 01:41:44;;;;;;;57.80;2.70;;;;;;;;;;5093265;28;20467;-70
2023/07/24 01:44:12;;;;;;;56.73;2.60;;;;;;;;;;5093787;28;20821;-70
2023/07/24 01:46:39;;;;;;;56.77;2.30;;;;;;;;;;5088936;28;20463;-70
2023/07/24 01:49:07;;;;;;;56.97;2.40;;;;;;;;;;5085502;28;20447;-71
2023/07/24 01:51:34;;;;;;;57.10;2.40;;;;;;;;;;5093473;28;20443;-71
2023/07/24 01:54:01;;;;;;;56.60;2.20;;;;;;;;;;5093148;28;20942;-70
2023/07/24 01:56:28;;;;;;;56.87;2.63;;;;;;;;;;5093533;28;20458;-71
2023/07/24 01:58:55;;;;;;;57.10;3.27;;;;;;;;;;5093540;28;20458;-70
2023/07/24 02:01:23;;;;;;;57.70;3.13;;;;;;;;;;5093205;28;20490;-70
2023/07/24 02:03:50;;;;;;;56.83;2.47;;;;;;;;;;5093674;28;20457;-71
2023/07/24 02:06:18;;;;;;;57.10;2.50;;;;;;;;;;5093394;28;20450;-70
2023/07/24 02:08:48;;;;;;;56.90;2.63;;;;;;;;;;5093412;28;20829;-70
2023/07/24 02:11:15;;;;;;;56.87;2.50;;;;;;;;;;5092955;28;20894;-70
2023/07/24 02:13:42;;;;;;;57.07;2.50;;;;;;;;;;5092981;28;20457;-71
2023/07/24 02:16:09;;;;;;;57.20;3.13;;;;;;;;;;5093276;28;20450;-70
2023/07/24 02:18:38;;;;;;;56.63;2.67;;;;;;;;;;5093446;28;20446;-70
2023/07/24 02:21:05;;;;;;;56.87;2.30;;;;;;;;;;5092645;28;20494;-70
2023/07/24 02:23:32;;;;;;;58.47;3.70;;;;;;;;;;5093058;28;20474;-70
2023/07/24 02:25:59;;;;;;;57.50;2.70;;;;;;;;;;5092966;28;20472;-71
2023/07/24 02:28:26;;;;;;;57.40;2.70;;;;;;;;;;5093240;28;20438;-70
2023/07/24 02:30:55;;;;;;;56.57;2.50;;;;;;;;;;5092510;28;20969;-71
2023/07/24 02:33:23;;;;;;;57.43;2.80;;;;;;;;;;5092795;28;20474;-70
2023/07/24 02:35:53;;;;;;;57.03;2.90;;;;;;;;;;5093010;28;20450;-70
2023/07/24 02:38:20;;;;;;;57.00;2.70;;;;;;;;;;5092640;28;20446;-70
2023/07/24 02:40:47;;;;;;;57.10;2.60;;;;;;;;;;5092316;28;20481;-70
2023/07/24 02:43:15;;;;;;;56.77;2.60;;;;;;;;;;5092171;28;20470;-70
2023/07/24 02:45:42;;;;;;;56.47;2.27;;;;;;;;;;5092706;28;20504;-70
2023/07/24 02:48:09;;;;;;;57.30;2.70;;;;;;;;;;5092794;28;20446;-71
2023/07/24 02:50:36;;;;;;;56.77;2.57;;;;;;;;;;5091531;28;20446;-71
2023/07/24 02:53:04;;;;;;;56.77;2.40;;;;;;;;;;5092154;28;20470;-70
2023/07/24 02:55:32;;;;;;;57.10;2.60;;;;;;;;;;5092344;28;20462;-71
2023/07/24 02:57:59;;;;;;;57.60;2.90;;;;;;;;;;5092459;28;20972;-70
2023/07/24 03:00:26;;;;;;;57.10;2.60;;;;;;;;;;5092047;28;20482;-71
2023/07/24 03:02:54;;;;;;;57.60;3.43;;;;;;;;;;5092143;28;21103;-70
2023/07/24 03:05:21;;;;;;;56.80;2.50;;;;;;;;;;5092204;28;20513;-69
2023/07/24 03:07:48;;;;;;;56.97;2.77;;;;;;;;;;5091956;28;21006;-70
2023/07/24 03:10:16;;;;;;;56.80;2.40;;;;;;;;;;5092026;28;20457;-70
2023/07/24 03:12:43;;;;;;;57.60;3.10;;;;;;;;;;5092066;28;20478;-70
2023/07/24 03:15:11;;;;;;;57.50;2.53;;;;;;;;;;5078861;28;20474;-71
2023/07/24 03:17:38;;;;;;;57.10;3.50;;;;;;;;;;5083567;28;20446;-71
2023/07/24 03:20:11;;;;;;;57.50;3.53;;;;;;;;;;5091156;28;20560;-69
2023/07/24 03:22:38;;;;;;;57.00;2.63;;;;;;;;;;5083652;28;20466;-70
2023/07/24 03:25:06;;;;;;;56.83;2.97;;;;;;;;;;5092120;28;20450;-70
2023/07/24 03:27:34;;;;;;;56.97;2.50;;;;;;;;;;5090477;28;20458;-70
2023/07/24 03:30:02;;;;;;;57.40;2.90;;;;;;;;;;5083408;28;20461;-70
2023/07/24 03:32:29;;;;;;;57.20;3.23;;;;;;;;;;5091823;28;20524;-71
2023/07/24 03:34:56;;;;;;;56.67;2.50;;;;;;;;;;5091915;28;20456;-70
2023/07/24 03:37:23;;;;;;;56.57;2.77;;;;;;;;;;5092038;28;20452;-71
2023/07/24 03:39:51;;;;;;;56.57;2.50;;;;;;;;;;5091958;28;20451;-71
2023/07/24 03:42:26;;;;;;;58.50;3.87;;;;;;;;;;5091429;28;20489;-71
2023/07/24 03:44:54;;;;;;;57.30;2.60;;;;;;;;;;5081658;28;20450;-71
2023/07/24 03:47:21;;;;;;;58.70;3.10;;;;;;;;;;5091446;28;20981;-70
2023/07/24 03:49:48;;;;;;;57.70;3.53;;;;;;;;;;5091774;28;20457;-71
2023/07/24 03:52:15;;;;;;;56.60;2.70;;;;;;;;;;5091085;28;20466;-71
2023/07/24 03:54:43;;;;;;;56.77;2.47;;;;;;;;;;5091658;28;20930;-70
2023/07/24 03:57:10;;;;;;;57.10;2.70;;;;;;;;;;5091834;28;20447;-71
2023/07/24 03:59:37;;;;;;;56.83;2.50;;;;;;;;;;5091847;28;20454;-71
2023/07/24 04:02:06;;;;;;;59.70;2.87;;;;;;;;;;5091335;28;20930;-71
2023/07/24 04:04:33;;;;;;;56.90;2.60;;;;;;;;;;5095479;28;20453;-71
2023/07/24 04:07:01;;;;;;;57.50;2.60;;;;;;;;;;5095467;28;20450;-69
2023/07/24 04:09:28;;;;;;;58.60;3.43;;;;;;;;;;5095257;28;20446;-71
2023/07/24 04:11:55;;;;;;;57.30;2.60;;;;;;;;;;5094785;28;20466;-71
2023/07/24 04:14:22;;;;;;;56.97;2.90;;;;;;;;;;5095665;28;20446;-70
2023/07/24 04:16:49;;;;;;;59.43;3.00;;;;;;;;;;5095803;28;20443;-70
2023/07/24 04:19:18;;;;;;;56.63;2.60;;;;;;;;;;5095482;28;20442;-70
2023/07/24 04:21:45;;;;;;;56.90;2.60;;;;;;;;;;5094639;28;20485;-70
2023/07/24 04:24:12;;;;;;;57.30;3.23;;;;;;;;;;5095193;28;20825;-70
2023/07/24 04:26:39;;;;;;;57.37;3.23;;;;;;;;;;5095370;28;20456;-70
2023/07/24 04:29:06;;;;;;;56.80;2.60;;;;;;;;;;5094928;28;20999;-71
2023/07/24 04:31:34;;;;;;;58.03;2.70;;;;;;;;;;5094453;28;20438;-71
2023/07/24 04:34:01;;;;;;;57.77;3.00;;;;;;;;;;5091847;28;20500;-71
2023/07/24 04:36:29;;;;;;;56.77;2.80;;;;;;;;;;5074578;28;20505;-70
2023/07/24 04:38:56;;;;;;;56.90;2.93;;;;;;;;;;5074368;28;20447;-70
2023/07/24 04:41:23;;;;;;;56.97;2.73;;;;;;;;;;5073857;28;20500;-69
2023/07/24 04:43:51;;;;;;;56.90;2.60;;;;;;;;;;5074285;28;20453;-70
2023/07/24 04:46:18;;;;;;;57.27;3.20;;;;;;;;;;5074145;28;20451;-69
2023/07/24 04:48:45;;;;;;;56.63;2.70;;;;;;;;;;5074350;28;20447;-70
2023/07/24 04:51:12;;;;;;;56.60;2.40;;;;;;;;;;5074053;28;20446;-68
2023/07/24 04:53:40;;;;;;;57.40;3.77;;;;;;;;;;5074137;28;20545;-70
2023/07/24 04:56:07;;;;;;;56.53;2.27;;;;;;;;;;5073813;28;20459;-70
2023/07/24 04:58:35;;;;;;;56.80;3.03;;;;;;;;;;5074394;28;20443;-70
2023/07/24 05:01:03;;;;;;;58.40;2.70;;;;;;;;;;5074166;28;20479;-70
2023/07/24 05:03:31;;;;;;;57.10;3.03;;;;;;;;;;5073868;28;20471;-70
2023/07/24 05:05:58;;;;;;;56.37;2.27;;;;;;;;;;5073707;28;20455;-70
2023/07/24 05:08:25;;;;;;;56.50;2.20;;;;;;;;;;5073652;28;20458;-70
2023/07/24 05:10:57;;;;;;;57.37;2.50;;;;;;;;;;5073580;28;20777;-71
2023/07/24 05:13:24;;;;;;;56.67;2.30;;;;;;;;;;5073331;28;20471;-71
2023/07/24 05:15:51;;;;;;;56.50;2.27;;;;;;;;;;5079966;28;20455;-70
2023/07/24 05:18:18;;;;;;;57.10;2.80;;;;;;;;;;5082095;28;20828;-70
2023/07/24 05:20:47;;;;;;;56.60;2.70;;;;;;;;;;5088069;28;20478;-70
2023/07/24 05:23:14;;;;;;;56.80;2.40;;;;;;;;;;5085997;28;20936;-70
2023/07/24 05:25:42;;;;;;;56.37;2.33;;;;;;;;;;5093559;28;20461;-69
2023/07/24 05:28:11;;;;;;;56.97;3.73;;;;;;;;;;5085480;28;20447;-70
2023/07/24 05:30:38;;;;;;;56.67;2.40;;;;;;;;;;5093516;28;20454;-71
2023/07/24 05:33:05;;;;;;;58.63;4.97;;;;;;;;;;5093433;28;20846;-70
2023/07/24 05:35:32;;;;;;;56.60;2.40;;;;;;;;;;5093515;28;20511;-70
2023/07/24 05:37:59;;;;;;;56.77;2.20;;;;;;;;;;5093729;28;20450;-70
2023/07/24 05:40:26;;;;;;;56.57;2.50;;;;;;;;;;5086786;28;20459;-70
2023/07/24 05:42:53;;;;;;;56.90;2.10;;;;;;;;;;5091775;28;21024;-71
2023/07/24 05:45:22;;;;;;;56.47;2.70;;;;;;;;;;5093501;28;20446;-71
2023/07/24 05:47:49;;;;;;;57.20;2.50;;;;;;;;;;5093311;28;20458;-70
2023/07/24 05:50:16;;;;;;;57.57;2.90;;;;;;;;;;5093172;28;20799;-70
2023/07/24 05:52:43;;;;;;;59.27;3.53;;;;;;;;;;5093420;28;20462;-70
2023/07/24 05:55:10;;;;;;;58.20;2.10;;;;;;;;;;5093279;28;20458;-70
2023/07/24 05:57:38;;;;;;;56.37;2.70;;;;;;;;;;5093393;28;20465;-70
2023/07/24 06:00:05;;;;;;;59.10;3.30;;;;;;;;;;5093085;28;20461;-70
2023/07/24 06:02:33;;;;;;;56.27;2.07;;;;;;;;;;5092812;28;20494;-70
2023/07/24 06:05:00;;;;;;;56.23;2.10;;;;;;;;;;5092877;28;20822;-70
2023/07/24 06:07:28;;;;;;;56.87;2.60;;;;;;;;;;5093148;28;20451;-70
2023/07/24 06:09:55;;;;;;;56.60;2.60;;;;;;;;;;5093148;28;20458;-70
2023/07/24 06:12:22;;;;;;;56.27;2.10;;;;;;;;;;5092505;28;20986;-70
2023/07/24 06:14:49;;;;;;;57.10;3.23;;;;;;;;;;5093018;28;20442;-70
2023/07/24 06:17:16;;;;;;;56.57;2.40;;;;;;;;;;5092649;28;20442;-70
2023/07/24 06:19:44;;;;;;;56.60;3.23;;;;;;;;;;5093328;28;20451;-70
2023/07/24 06:22:11;;;;;;;56.50;2.20;;;;;;;;;;5092500;28;20516;-70
2023/07/24 06:24:38;;;;;;;57.10;3.17;;;;;;;;;;5087246;28;20944;-70
2023/07/24 06:27:07;;;;;;;56.67;2.60;;;;;;;;;;5071963;28;20443;-70
2023/07/24 06:29:34;;;;;;;56.13;2.10;;;;;;;;;;5071667;28;20858;-70
2023/07/24 06:32:02;;;;;;;56.80;2.73;;;;;;;;;;5051666;28;20555;-70
2023/07/24 06:34:30;;;;;;;56.50;2.40;;;;;;;;;;5052431;28;21006;-71
2023/07/24 06:36:58;;;;;;;56.60;2.73;;;;;;;;;;5052117;28;20445;-71
2023/07/24 06:39:25;;;;;;;56.50;2.53;;;;;;;;;;5051749;28;20460;-71
2023/07/24 06:41:53;;;;;;;56.70;3.17;;;;;;;;;;5051392;28;20492;-71
2023/07/24 06:44:20;;;;;;;56.30;2.10;;;;;;;;;;5051777;28;20542;-69
2023/07/24 06:46:47;;;;;;;62.90;5.67;;;;;;;;;;5051756;28;20456;-71
2023/07/24 06:49:14;;;;;;;56.67;2.50;;;;;;;;;;5052352;28;20460;-71
2023/07/24 06:51:41;;;;;;;57.57;3.07;;;;;;;;;;5051066;28;20479;-71
2023/07/24 06:54:10;;;;;;;57.30;3.23;;;;;;;;;;5051472;28;20452;-71
2023/07/24 06:56:37;;;;;;;57.77;4.47;;;;;;;;;;5051273;28;20832;-70
2023/07/24 06:59:05;;;;;;;57.13;2.73;;;;;;;;;;5051261;28;20441;-71
2023/07/24 07:01:32;;;;;;;57.73;3.17;;;;;;;;;;5050946;28;20480;-70
2023/07/24 07:03:59;;;;;;;56.73;2.87;;;;;;;;;;5051726;28;20452;-71
2023/07/24 07:06:26;;;;;;;57.77;2.97;;;;;;;;;;5051547;28;20456;-70
2023/07/24 07:08:53;;;;;;;58.03;3.53;;;;;;;;;;5050924;28;20456;-71
2023/07/24 07:11:21;;;;;;;56.80;2.27;;;;;;;;;;5050841;28;20940;-70
2023/07/24 07:13:48;;;;;;;56.80;2.57;;;;;;;;;;5051124;28;20462;-71
2023/07/24 07:16:16;;;;;;;55.80;2.07;;;;;;;;;;5070722;28;20836;-70
2023/07/24 07:18:43;;;;;;;56.37;2.20;;;;;;;;;;5082247;28;20450;-71
2023/07/24 07:21:11;;;;;;;56.63;3.00;;;;;;;;;;5089133;28;20985;-70
2023/07/24 07:23:38;;;;;;;57.37;2.47;;;;;;;;;;5082259;28;20567;-71
2023/07/24 07:26:05;;;;;;;56.60;2.20;;;;;;;;;;5073621;28;20444;-71
2023/07/24 07:28:33;;;;;;;55.87;2.30;;;;;;;;;;5071288;28;20537;-71
2023/07/24 07:31:01;;;;;;;56.13;2.00;;;;;;;;;;5080775;28;20870;-70
2023/07/24 07:33:29;;;;;;;56.60;2.60;;;;;;;;;;5082855;28;20458;-71
2023/07/24 07:35:56;;;;;;;58.60;2.70;;;;;;;;;;5091004;28;21018;-71
2023/07/24 07:38:24;;;;;;;56.47;2.60;;;;;;;;;;5094071;28;20444;-70
2023/07/24 07:40:51;;;;;;;56.50;2.33;;;;;;;;;;5095021;28;20478;-69
2023/07/24 07:43:18;;;;;;;56.17;1.97;;;;;;;;;;5095515;28;21036;-70
2023/07/24 07:45:48;;;;;;;56.17;2.07;;;;;;;;;;5095117;28;20446;-70
2023/07/24 07:48:15;;;;;;;55.80;1.90;;;;;;;;;;5095359;28;20454;-71
2023/07/24 07:50:42;;;;;;;57.27;2.67;;;;;;;;;;5095045;28;20450;-70
2023/07/24 07:53:09;;;;;;;56.50;2.40;;;;;;;;;;5095155;28;20494;-71
2023/07/24 07:55:36;;;;;;;55.87;2.30;;;;;;;;;;5095304;28;20458;-70
2023/07/24 07:58:03;;;;;;;57.63;2.73;;;;;;;;;;5095445;28;20460;-70
2023/07/24 08:00:30;;;;;;;56.60;2.30;;;;;;;;;;5094976;28;20822;-70
2023/07/24 08:02:59;;;;;;;56.77;2.40;;;;;;;;;;5095000;28;20493;-71
2023/07/24 08:05:26;;;;;;;58.60;2.40;;;;;;;;;;5094856;28;20965;-70
2023/07/24 08:07:53;;;;;;;56.50;2.60;;;;;;;;;;5094989;28;20452;-71
2023/07/24 08:10:20;;;;;;;56.87;2.63;;;;;;;;;;5094818;28;20449;-70
2023/07/24 08:12:47;;;;;;;58.23;3.83;;;;;;;;;;5094797;28;20471;-70
2023/07/24 08:15:14;;;;;;;56.80;2.43;;;;;;;;;;5095067;28;20450;-69
2023/07/24 08:17:41;;;;;;;56.90;2.87;;;;;;;;;;5094753;28;20450;-70
2023/07/24 08:20:10;;;;;;;57.27;2.80;;;;;;;;;;5094750;28;20822;-70
2023/07/24 08:22:37;;;;;;;56.87;2.77;;;;;;;;;;5094431;28;20493;-71
2023/07/24 08:25:04;;;;;;;55.90;2.30;;;;;;;;;;5094602;28;20454;-70
2023/07/24 08:27:32;;;;;;;60.80;3.07;;;;;;;;;;5094450;28;20457;-72
2023/07/24 08:29:59;;;;;;;56.47;2.10;;;;;;;;;;5094392;28;20539;-73
2023/07/24 08:32:26;;;;;;;60.47;3.40;;;;;;;;;;5094163;28;20462;-73
2023/07/24 08:34:53;;;;;;;57.30;3.03;;;;;;;;;;5094053;28;20966;-72
2023/07/24 08:37:21;;;;;;;57.07;2.43;;;;;;;;;;5094458;28;20446;-72
2023/07/24 08:39:48;;;;;;;56.83;2.53;;;;;;;;;;5094149;28;20446;-72
2023/07/24 08:42:16;;;;;;;56.57;2.30;;;;;;;;;;5093795;28;20486;-72
2023/07/24 08:44:43;;;;;;;56.67;2.37;;;;;;;;;;5094130;28;21106;-72
2023/07/24 08:47:11;;;;;;;57.27;3.47;;;;;;;;;;5094070;28;20454;-72
2023/07/24 08:49:38;;;;;;;56.57;2.33;;;;;;;;;;5092853;28;20529;-72
2023/07/24 08:52:06;;;;;;;57.00;2.57;;;;;;;;;;5093821;28;20462;-72
2023/07/24 08:54:37;;;;;;;57.20;2.60;;;;;;;;;;5093897;28;20451;-72
2023/07/24 08:57:06;;;;;;;56.87;3.13;;;;;;;;;;5093943;28;20450;-72
2023/07/24 08:59:33;;;;;;;57.77;3.43;;;;;;;;;;5093956;28;20950;-72
2023/07/24 09:02:00;;;;;;;57.43;3.43;;;;;;;;;;5093480;28;20490;-72
2023/07/24 09:04:27;;;;;;;56.80;2.93;;;;;;;;;;5094234;28;20450;-73
2023/07/24 09:06:54;;;;;;;57.37;2.80;;;;;;;;;;5093783;28;20450;-72
2023/07/24 09:09:21;;;;;;;56.77;2.80;;;;;;;;;;5093902;28;20952;-71
2023/07/24 09:11:50;;;;;;;56.23;2.30;;;;;;;;;;5093436;28;20472;-72
2023/07/24 09:14:24;;;;;;;57.17;2.90;;;;;;;;;;5091476;28;20781;-69
2023/07/24 09:16:53;;;;;;;57.00;2.67;;;;;;;;;;5078083;28;20446;-70
2023/07/24 09:19:20;;;;;;;57.27;2.50;;;;;;;;;;5086967;28;20860;-69
2023/07/24 09:21:47;;;;;;;57.40;3.03;;;;;;;;;;5089986;28;20462;-70
2023/07/24 09:24:15;;;;;;;56.67;2.50;;;;;;;;;;5086201;28;20443;-69
2023/07/24 09:26:50;;;;;;;63.40;4.30;;;;;;;;;;5093348;28;20525;-68
2023/07/24 09:29:18;;;;;;;57.47;3.27;;;;;;;;;;5093319;28;20442;-70
2023/07/24 09:31:45;;;;;;;56.70;2.33;;;;;;;;;;5092958;28;20471;-69
2023/07/24 09:34:16;;;;;;;59.90;2.87;;;;;;;;;;5093356;28;20450;-68
2023/07/24 09:36:43;;;;;;;57.57;2.30;;;;;;;;;;5085318;28;20826;-70
2023/07/24 09:39:11;;;;;;;58.13;2.20;;;;;;;;;;5078873;28;20466;-69
2023/07/24 09:41:39;;;;;;;57.67;2.37;;;;;;;;;;5077713;28;20486;-70
2023/07/24 09:44:08;;;;;;;56.27;2.00;;;;;;;;;;5089763;28;20459;-70
2023/07/24 09:46:35;;;;;;;56.80;2.90;;;;;;;;;;5081322;28;20818;-68
2023/07/24 09:49:02;;;;;;;57.10;2.50;;;;;;;;;;5092252;28;20445;-70
2023/07/24 09:51:32;;;;;;;57.53;3.50;;;;;;;;;;5092608;28;20496;-69
2023/07/24 09:54:02;;;;;;;55.87;1.97;;;;;;;;;;5092614;28;20446;-69
2023/07/24 09:56:30;;;;;;;56.83;2.67;;;;;;;;;;5092964;28;20439;-68
2023/07/24 09:58:58;;;;;;;57.20;3.20;;;;;;;;;;5092948;28;20449;-69
2023/07/24 10:01:26;;;;;;;56.13;2.03;;;;;;;;;;5091812;28;20946;-69
2023/07/24 10:03:54;;;;;;;56.80;2.33;;;;;;;;;;5092523;28;21029;-68
2023/07/24 10:06:21;;;;;;;56.57;2.10;;;;;;;;;;5092626;28;20446;-69
2023/07/24 10:08:48;;;;;;;57.57;2.13;;;;;;;;;;5092583;28;20442;-69
2023/07/24 10:11:16;;;;;;;56.60;1.87;;;;;;;;;;5092181;28;20443;-68
2023/07/24 10:13:43;;;;;;;56.77;2.60;;;;;;;;;;5092559;28;20462;-69
2023/07/24 10:16:10;;;;;;;56.20;1.80;;;;;;;;;;5092512;28;20442;-68
2023/07/24 10:18:44;;;;;;;59.70;3.37;;;;;;;;;;5092370;28;20976;-70
2023/07/24 10:21:12;;;;;;;57.77;4.23;;;;;;;;;;5092193;28;20777;-69
2023/07/24 10:23:42;;;;;;;56.47;1.90;;;;;;;;;;5092342;28;20543;-68
2023/07/24 10:26:10;;;;;;;56.67;2.20;;;;;;;;;;5092317;28;20454;-69
2023/07/24 10:28:38;;;;;;;57.00;2.67;;;;;;;;;;5092272;28;20442;-69
2023/07/24 10:31:08;;;;;;;57.20;2.23;;;;;;;;;;5091978;28;20458;-70
2023/07/24 10:33:38;;;;;;;56.60;2.30;;;;;;;;;;5083871;28;20883;-69
2023/07/24 10:36:09;;;;;;;56.40;2.10;;;;;;;;;;5078367;28;20819;-69
2023/07/24 10:38:37;;;;;;;57.03;2.60;;;;;;;;;;5083718;28;20542;-71
2023/07/24 10:41:05;;;;;;;56.67;3.27;;;;;;;;;;5083063;28;20446;-67
2023/07/24 10:43:41;;;;;;;56.83;3.07;;;;;;;;;;5091887;28;20504;-70
2023/07/24 10:46:08;;;;;;;56.70;2.63;;;;;;;;;;5091829;28;20750;-71
2023/07/24 10:48:35;;;;;;;57.10;3.60;;;;;;;;;;5091801;28;20450;-70
2023/07/24 10:51:09;;;;;;;56.17;2.20;;;;;;;;;;5091725;28;20442;-70
2023/07/24 10:53:36;;;;;;;56.60;2.23;;;;;;;;;;5091651;28;21011;-70
2023/07/24 10:56:03;;;;;;;56.10;2.80;;;;;;;;;;5091434;28;20465;-70
2023/07/24 10:58:31;;;;;;;56.60;2.10;;;;;;;;;;5091601;28;20454;-70
2023/07/24 11:00:58;;;;;;;56.80;2.83;;;;;;;;;;5091353;28;20458;-70
2023/07/24 11:03:26;;;;;;;56.80;2.70;;;;;;;;;;5091502;28;20489;-70
2023/07/24 11:05:53;;;;;;;56.57;3.07;;;;;;;;;;5091673;28;20454;-70
2023/07/24 11:08:22;;;;;;;56.67;2.40;;;;;;;;;;5091525;28;20516;-72
2023/07/24 11:10:50;;;;;;;57.03;2.50;;;;;;;;;;5091376;28;20442;-72
2023/07/24 11:13:17;;;;;;;58.07;2.67;;;;;;;;;;5090510;28;20470;-71
2023/07/24 11:15:44;;;;;;;57.00;2.93;;;;;;;;;;5076597;28;20451;-71
2023/07/24 11:18:12;;;;;;;57.90;3.20;;;;;;;;;;5085452;28;20451;-70
2023/07/24 11:20:40;;;;;;;57.70;3.90;;;;;;;;;;5087412;28;20541;-70
2023/07/24 11:23:07;;;;;;;57.47;2.70;;;;;;;;;;5091162;28;20482;-70
2023/07/24 11:25:36;;;;;;;57.50;3.80;;;;;;;;;;5091039;28;20468;-70
2023/07/24 11:28:04;;;;;;;56.93;3.10;;;;;;;;;;5091092;28;20454;-69
2023/07/24 11:30:31;;;;;;;58.37;3.00;;;;;;;;;;5090675;28;20460;-69
2023/07/24 11:33:00;;;;;;;56.70;2.40;;;;;;;;;;5091563;28;20567;-68
2023/07/24 11:35:27;;;;;;;57.00;3.03;;;;;;;;;;5091853;28;20490;-68
2023/07/24 11:37:55;;;;;;;56.97;2.50;;;;;;;;;;5091717;28;20478;-68
2023/07/24 11:40:22;;;;;;;57.07;3.10;;;;;;;;;;5091214;28;20446;-71
2023/07/24 11:42:51;;;;;;;57.40;2.60;;;;;;;;;;5091034;28;20489;-70
2023/07/24 11:45:18;;;;;;;58.20;3.17;;;;;;;;;;5091154;28;20447;-71
2023/07/24 11:47:46;;;;;;;56.27;2.73;;;;;;;;;;5091074;28;20976;-70
2023/07/24 11:50:14;;;;;;;59.67;4.30;;;;;;;;;;5090978;28;20442;-71
2023/07/24 11:52:43;;;;;;;62.20;3.87;;;;;;;;;;5090973;28;20496;-68
2023/07/24 11:55:10;;;;;;;56.50;2.07;;;;;;;;;;5090924;28;20462;-69
2023/07/24 11:57:37;;;;;;;56.17;2.07;;;;;;;;;;5090947;28;20446;-67
2023/07/24 12:00:09;;;;;;;57.77;2.73;;;;;;;;;;5085225;28;20455;-68
2023/07/24 12:02:36;;;;;;;56.40;2.10;;;;;;;;;;5068300;28;20471;-69
2023/07/24 12:05:06;;;;;;;56.50;2.43;;;;;;;;;;5070708;28;20969;-68
2023/07/24 12:07:34;;;;;;;55.80;2.30;;;;;;;;;;5071126;28;20447;-68
2023/07/24 12:10:02;;;;;;;58.00;2.60;;;;;;;;;;5071173;28;20534;-68
2023/07/24 12:12:38;;;;;;;57.00;2.43;;;;;;;;;;5070735;28;20536;-69
2023/07/24 12:15:07;;;;;;;58.47;2.63;;;;;;;;;;5070696;28;20455;-68
2023/07/24 12:17:34;;;;;;;56.40;2.50;;;;;;;;;;5070538;28;20439;-68
2023/07/24 12:20:02;;;;;;;58.80;2.67;;;;;;;;;;5070422;28;20443;-67
2023/07/24 12:22:29;;;;;;;57.07;2.77;;;;;;;;;;5070657;28;20464;-69
2023/07/24 12:24:56;;;;;;;56.40;2.37;;;;;;;;;;5073770;28;21002;-68
2023/07/24 12:27:24;;;;;;;57.50;3.30;;;;;;;;;;5068993;28;20460;-68
2023/07/24 12:29:51;;;;;;;56.27;2.27;;;;;;;;;;5073674;28;20487;-68
2023/07/24 12:32:20;;;;;;;57.10;2.30;;;;;;;;;;5082353;28;20469;-68
2023/07/24 12:34:48;;;;;;;57.77;2.40;;;;;;;;;;5083080;28;20451;-68
2023/07/24 12:37:15;;;;;;;58.70;2.60;;;;;;;;;;5094432;28;20450;-68
2023/07/24 12:39:42;;;;;;;56.30;2.00;;;;;;;;;;5094485;28;20455;-68
2023/07/24 12:42:09;;;;;;;57.97;2.83;;;;;;;;;;5093888;28;20494;-68
2023/07/24 12:44:36;;;;;;;56.37;3.00;;;;;;;;;;5094066;28;21026;-68
2023/07/24 12:47:04;;;;;;;57.10;2.43;;;;;;;;;;5093939;28;20446;-69
2023/07/24 12:49:32;;;;;;;56.70;2.80;;;;;;;;;;5089595;28;20451;-69
2023/07/24 12:51:59;;;;;;;56.47;2.27;;;;;;;;;;5083901;28;20468;-69
2023/07/24 12:54:27;;;;;;;55.90;2.03;;;;;;;;;;5094114;28;20454;-68
2023/07/24 12:56:54;;;;;;;56.97;2.80;;;;;;;;;;5093875;28;20454;-69
2023/07/24 12:59:21;;;;;;;56.40;2.27;;;;;;;;;;5093766;28;20458;-68
2023/07/24 13:01:48;;;;;;;57.83;3.10;;;;;;;;;;5093380;28;20823;-69
2023/07/24 13:04:15;;;;;;;56.60;2.50;;;;;;;;;;5093753;28;20539;-68
2023/07/24 13:06:44;;;;;;;56.90;2.80;;;;;;;;;;5093720;28;20476;-68
2023/07/24 13:09:11;;;;;;;57.23;2.97;;;;;;;;;;5093710;28;20452;-69
2023/07/24 13:11:38;;;;;;;57.10;2.00;;;;;;;;;;5093301;28;21167;-68
2023/07/24 13:14:05;;;;;;;56.70;2.60;;;;;;;;;;5093489;28;20443;-68
2023/07/24 13:16:32;;;;;;;56.50;1.90;;;;;;;;;;5093415;28;20442;-68
2023/07/24 13:18:59;;;;;;;56.23;2.10;;;;;;;;;;5093614;28;20446;-68
2023/07/24 13:21:26;;;;;;;56.27;2.10;;;;;;;;;;5093081;28;20946;-68
2023/07/24 13:23:55;;;;;;;59.27;3.57;;;;;;;;;;5093369;28;20489;-68
2023/07/24 13:26:23;;;;;;;56.40;2.23;;;;;;;;;;5093242;28;20486;-69
2023/07/24 13:28:50;;;;;;;56.60;2.57;;;;;;;;;;5093175;28;20455;-68
2023/07/24 13:31:18;;;;;;;56.43;2.10;;;;;;;;;;5092927;28;20553;-69
2023/07/24 13:33:45;;;;;;;57.27;2.30;;;;;;;;;;5093322;28;20451;-68
2023/07/24 13:36:12;;;;;;;56.27;2.00;;;;;;;;;;5092267;28;20473;-68
2023/07/24 13:38:39;;;;;;;56.47;2.10;;;;;;;;;;5093239;28;20469;-69
2023/07/24 13:41:08;;;;;;;57.10;2.20;;;;;;;;;;5092781;28;20463;-68
2023/07/24 13:43:35;;;;;;;56.17;1.97;;;;;;;;;;5092870;28;21071;-68
2023/07/24 13:46:03;;;;;;;57.00;2.53;;;;;;;;;;5093205;28;20452;-68
2023/07/24 13:48:31;;;;;;;56.80;2.10;;;;;;;;;;5093097;28;20828;-69
2023/07/24 13:50:58;;;;;;;56.57;2.77;;;;;;;;;;5092842;28;20763;-69
2023/07/24 13:53:25;;;;;;;59.07;2.83;;;;;;;;;;5092732;28;20470;-68
2023/07/24 13:55:52;;;;;;;56.37;2.23;;;;;;;;;;5092693;28;20462;-67
2023/07/24 13:58:21;;;;;;;58.00;2.30;;;;;;;;;;5092802;28;20447;-69
2023/07/24 14:00:48;;;;;;;57.27;2.50;;;;;;;;;;5092363;28;20965;-68
2023/07/24 14:03:15;;;;;;;58.93;2.97;;;;;;;;;;5092570;28;20473;-68
2023/07/24 14:05:42;;;;;;;56.30;1.90;;;;;;;;;;5092609;28;20443;-69
2023/07/24 14:08:09;;;;;;;56.60;1.90;;;;;;;;;;5092442;28;20447;-69
2023/07/24 14:10:36;;;;;;;56.80;2.10;;;;;;;;;;5092302;28;20450;-69
2023/07/24 14:13:04;;;;;;;56.07;1.70;;;;;;;;;;5092275;28;20990;-69
2023/07/24 14:15:32;;;;;;;56.17;1.87;;;;;;;;;;5092286;28;20449;-69
2023/07/24 14:18:00;;;;;;;56.60;2.70;;;;;;;;;;5092427;28;20478;-68
2023/07/24 14:20:27;;;;;;;56.67;2.00;;;;;;;;;;5092183;28;20465;-69
2023/07/24 14:22:54;;;;;;;56.80;2.33;;;;;;;;;;5092109;28;20475;-69
2023/07/24 14:25:21;;;;;;;57.30;2.37;;;;;;;;;;5092235;28;20888;-69
2023/07/24 14:27:48;;;;;;;56.27;2.07;;;;;;;;;;5092423;28;20451;-69
2023/07/24 14:30:15;;;;;;;58.67;2.27;;;;;;;;;;5091773;28;20457;-68
2023/07/24 14:32:43;;;;;;;56.20;1.80;;;;;;;;;;5091942;28;20973;-69